TimeCDT,TemperatureF,Dew PointF,Humidity,Sea Level PressureIn,VisibilityMPH,Wind Direction,Wind SpeedMPH,Gust SpeedMPH,PrecipitationIn,Events,Conditions,WindDirDegrees,DateUTC
12:15 AM,71.6,66.2,83,30.19,10.0,Calm,Calm,-,N/A,,Clear,0,2013-07-16 05:15:00
12:35 AM,71.6,66.2,83,30.20,10.0,Calm,Calm,-,N/A,,Mostly Cloudy,0,2013-07-16 05:35:00
12:55 AM,71.6,66.2,83,30.20,10.0,East,3.5,-,N/A,,Mostly Cloudy,80,2013-07-16 05:55:00
1:15 AM,73.4,66.2,78,30.20,10.0,SSE,4.6,-,N/A,,Mostly Cloudy,150,2013-07-16 06:15:00
1:35 AM,71.6,66.2,83,30.20,10.0,SSE,3.5,-,N/A,,Scattered Clouds,150,2013-07-16 06:35:00
1:55 AM,71.6,66.2,83,30.20,10.0,SSE,4.6,-,N/A,,Partly Cloudy,150,2013-07-16 06:55:00
2:15 AM,71.6,66.2,83,30.19,10.0,SSE,4.6,-,N/A,,Clear,160,2013-07-16 07:15:00
2:35 AM,71.6,64.4,78,30.20,10.0,SSE,3.5,-,N/A,,Clear,160,2013-07-16 07:35:00
2:55 AM,71.6,64.4,78,30.21,10.0,Calm,Calm,-,N/A,,Clear,0,2013-07-16 07:55:00
3:15 AM,69.8,64.4,83,30.20,10.0,Calm,Calm,-,N/A,,Clear,0,2013-07-16 08:15:00
3:35 AM,69.8,64.4,83,30.21,10.0,Calm,Calm,-,N/A,,Clear,0,2013-07-16 08:35:00
3:55 AM,69.8,64.4,83,30.21,10.0,South,3.5,-,N/A,,Clear,170,2013-07-16 08:55:00
4:15 AM,71.6,66.2,83,30.22,10.0,South,3.5,-,N/A,,Partly Cloudy,190,2013-07-16 09:15:00
4:35 AM,71.6,66.2,83,30.22,10.0,South,4.6,-,N/A,,Clear,190,2013-07-16 09:35:00
4:55 AM,69.8,66.2,88,30.22,10.0,South,3.5,-,N/A,,Clear,190,2013-07-16 09:55:00
5:15 AM,69.8,66.2,88,30.22,10.0,Calm,Calm,-,N/A,,Clear,0,2013-07-16 10:15:00
5:35 AM,69.8,64.4,83,30.22,10.0,Calm,Calm,-,N/A,,Clear,0,2013-07-16 10:35:00
6:15 AM,68.0,64.4,88,30.23,8.0,Calm,Calm,-,N/A,,Clear,0,2013-07-16 11:15:00
6:36 AM,69.8,64.4,83,30.24,10.0,Calm,Calm,-,N/A,,Clear,0,2013-07-16 11:36:00
6:55 AM,69.8,66.2,88,30.24,10.0,ESE,3.5,-,N/A,,Clear,110,2013-07-16 11:55:00
7:15 AM,71.6,66.2,83,30.24,10.0,ESE,3.5,-,N/A,,Clear,110,2013-07-16 12:15:00
7:35 AM,73.4,66.2,78,30.25,10.0,Calm,Calm,-,N/A,,Clear,0,2013-07-16 12:35:00
7:55 AM,75.2,66.2,73,30.26,10.0,ESE,3.5,-,N/A,,Clear,110,2013-07-16 12:55:00
8:35 AM,78.8,66.2,65,30.27,10.0,East,5.8,-,N/A,,Clear,100,2013-07-16 13:35:00
8:55 AM,78.8,68.0,69,30.27,10.0,East,6.9,-,N/A,,Clear,90,2013-07-16 13:55:00
9:15 AM,80.6,69.8,70,30.28,10.0,East,4.6,-,N/A,,Clear,100,2013-07-16 14:15:00
9:35 AM,80.6,68.0,65,30.28,10.0,Calm,Calm,-,N/A,,Clear,0,2013-07-16 14:35:00
9:55 AM,82.4,69.8,66,30.28,10.0,SE,6.9,-,N/A,,Clear,130,2013-07-16 14:55:00
10:15 AM,84.2,69.8,62,30.28,10.0,ESE,4.6,-,N/A,,Clear,120,2013-07-16 15:15:00
10:35 AM,84.2,68.0,58,30.28,10.0,SSE,9.2,-,N/A,,Partly Cloudy,150,2013-07-16 15:35:00
10:55 AM,82.4,66.2,58,30.29,10.0,SSE,8.1,-,N/A,,Scattered Clouds,150,2013-07-16 15:55:00
11:35 AM,84.2,66.2,55,30.28,10.0,SSE,4.6,-,N/A,,Mostly Cloudy,160,2013-07-16 16:35:00
11:55 AM,84.2,66.2,55,30.28,10.0,SE,3.5,-,N/A,,Mostly Cloudy,130,2013-07-16 16:55:00
12:15 PM,87.8,66.2,49,30.27,10.0,East,5.8,-,N/A,,Scattered Clouds,80,2013-07-16 17:15:00
12:35 PM,86.0,66.2,51,30.27,10.0,ESE,3.5,-,N/A,,Mostly Cloudy,120,2013-07-16 17:35:00
12:56 PM,86.0,66.2,51,30.27,10.0,Calm,Calm,-,N/A,,Mostly Cloudy,0,2013-07-16 17:56:00
1:15 PM,87.8,66.2,49,30.26,10.0,South,3.5,-,N/A,Thunderstorm,Mostly Cloudy,190,2013-07-16 18:15:00
1:35 PM,87.8,66.2,49,30.25,10.0,East,3.5,-,N/A,Thunderstorm,Mostly Cloudy,80,2013-07-16 18:35:00
1:55 PM,78.8,68.0,69,30.26,7.0,SE,13.8,24.2,N/A,Thunderstorm,Thunderstorm,130,2013-07-16 18:55:00
2:15 PM,77.0,69.8,78,30.26,10.0,East,11.5,17.3,N/A,Thunderstorm,Scattered Clouds,80,2013-07-16 19:15:00
2:36 PM,77.0,66.2,69,30.26,10.0,ENE,11.5,-,N/A,Thunderstorm,Clear,60,2013-07-16 19:36:00
2:55 PM,78.8,64.4,61,30.27,10.0,NNE,6.9,-,N/A,,Clear,30,2013-07-16 19:55:00
3:15 PM,78.8,66.2,65,30.25,10.0,ENE,6.9,-,N/A,,Clear,70,2013-07-16 20:15:00
3:35 PM,78.8,66.2,65,30.23,10.0,North,6.9,-,N/A,,Clear,10,2013-07-16 20:35:00
3:55 PM,78.8,66.2,65,30.25,10.0,Calm,Calm,-,N/A,Thunderstorm,Partly Cloudy,0,2013-07-16 20:55:00
4:15 PM,82.4,66.2,58,30.24,10.0,SE,5.8,-,N/A,Thunderstorm,Partly Cloudy,130,2013-07-16 21:15:00
4:35 PM,80.6,68.0,65,30.24,10.0,South,6.9,-,N/A,,Clear,170,2013-07-16 21:35:00
4:55 PM,78.8,66.2,65,30.25,10.0,SSW,3.5,-,N/A,,Partly Cloudy,210,2013-07-16 21:55:00
5:15 PM,78.8,68.0,69,30.24,10.0,Calm,Calm,-,N/A,,Clear,0,2013-07-16 22:15:00
5:35 PM,78.8,68.0,69,30.24,10.0,Calm,Calm,-,N/A,,Clear,0,2013-07-16 22:35:00
5:55 PM,78.8,69.8,74,30.25,10.0,ESE,3.5,-,N/A,,Partly Cloudy,120,2013-07-16 22:55:00
6:15 PM,78.8,69.8,74,30.25,10.0,Calm,Calm,-,N/A,,Partly Cloudy,0,2013-07-16 23:15:00
6:35 PM,80.6,68.0,65,30.24,10.0,East,4.6,-,N/A,,Clear,90,2013-07-16 23:35:00
6:55 PM,78.8,68.0,69,30.24,10.0,East,3.5,-,N/A,,Clear,80,2013-07-16 23:55:00
7:15 PM,78.8,68.0,69,30.24,10.0,East,6.9,-,N/A,,Clear,80,2013-07-17 00:15:00
7:35 PM,78.8,68.0,69,30.24,10.0,East,5.8,-,N/A,,Clear,80,2013-07-17 00:35:00
7:55 PM,78.8,68.0,69,30.23,10.0,East,6.9,-,N/A,,Clear,80,2013-07-17 00:55:00
8:16 PM,78.8,68.0,69,30.24,10.0,East,6.9,-,N/A,,Clear,90,2013-07-17 01:16:00
8:35 PM,78.8,69.8,74,30.24,10.0,East,9.2,-,N/A,,Clear,90,2013-07-17 01:35:00
8:55 PM,77.0,69.8,78,30.24,10.0,Calm,Calm,-,N/A,,Clear,0,2013-07-17 01:55:00
9:15 PM,77.0,69.8,78,30.25,10.0,Calm,Calm,-,N/A,,Clear,0,2013-07-17 02:15:00
9:35 PM,77.0,69.8,78,30.26,10.0,Calm,Calm,-,N/A,,Clear,0,2013-07-17 02:35:00
9:55 PM,75.2,69.8,83,30.27,10.0,Calm,Calm,-,N/A,,Clear,0,2013-07-17 02:55:00
10:15 PM,73.4,69.8,88,30.28,10.0,Calm,Calm,-,N/A,,Clear,0,2013-07-17 03:15:00
10:35 PM,75.2,69.8,83,30.28,10.0,Calm,Calm,-,N/A,,Clear,0,2013-07-17 03:35:00
10:55 PM,75.2,69.8,83,30.29,10.0,East,4.6,-,N/A,,Clear,90,2013-07-17 03:55:00
11:15 PM,75.2,69.8,83,30.29,10.0,East,3.5,-,N/A,,Clear,80,2013-07-17 04:15:00
11:36 PM,75.2,69.8,83,30.29,10.0,East,4.6,-,N/A,,Clear,90,2013-07-17 04:36:00
11:55 PM,75.2,69.8,83,30.29,10.0,East,5.8,-,N/A,,Clear,90,2013-07-17 04:55:00